Time;durP1;ratioP1;P1;durP2;ratioP2;P2;SDS_P1;SDS_P2;PMS_P1;PMS_P2;Temp;Humidity;BMP_temperature;BMP_pressure;BME280_temperature;BME280_humidity;BME280_pressure;Samples;Min_cycle;Max_cycle;Signal;HPM_P1;HPM_P2
2022/11/24 00:02:00;;;;;;;9.23;2.10;;;;;;;-140.72;100.00;53168.09;5095618;28;20023;-61
2022/11/24 00:04:26;;;;;;;4.60;1.80;;;;;;;-140.72;100.00;53196.50;5111359;28;20039;-61
2022/11/24 00:06:52;;;;;;;14.05;2.03;;;;;;;-140.72;100.00;53149.81;5106381;27;20031;-66
2022/11/24 00:09:18;;;;;;;6.53;2.20;;;;;;;-140.72;100.00;53170.13;5094226;27;20034;-61
2022/11/24 00:11:44;;;;;;;12.40;1.90;;;;;;;-140.72;100.00;53182.28;5110645;28;20031;-65
2022/11/24 00:14:10;;;;;;;8.32;1.30;;;;;;;-140.72;100.00;53174.19;5113016;27;20055;-61
2022/11/24 00:16:36;;;;;;;5.65;1.77;;;;;;;-140.72;100.00;53157.94;5109524;28;20020;-66
2022/11/24 00:19:08;;;;;;;4.40;2.00;;;;;;;-140.72;100.00;53157.94;5110604;28;20187;-63
2022/11/24 00:21:34;;;;;;;3.90;1.55;;;;;;;-140.72;100.00;53145.75;5110007;28;20566;-64
2022/11/24 00:24:00;;;;;;;8.52;2.28;;;;;;;-140.72;100.00;53170.13;5109710;28;20055;-63
2022/11/24 00:26:31;;;;;;;6.47;1.45;;;;;;;-140.72;100.00;53178.22;5097895;28;20247;-63
2022/11/24 00:28:59;;;;;;;4.55;1.90;;;;;;;-140.72;100.00;53188.38;5098137;28;20510;-62
2022/11/24 00:31:30;;;;;;;7.20;1.38;;;;;;;-140.72;100.00;53172.16;5110343;28;20024;-68
2022/11/24 00:33:58;;;;;;;5.85;1.27;;;;;;;-140.72;100.00;53190.41;5098296;28;20073;-62
2022/11/24 00:36:26;;;;;;;9.15;2.47;;;;;;;-140.72;100.00;53212.75;5109967;28;20046;-63
2022/11/24 00:38:56;;;;;;;6.88;2.15;;;;;;;-140.72;100.00;53153.88;5096496;28;20035;-64
2022/11/24 00:41:23;;;;;;;7.63;1.38;;;;;;;-140.72;100.00;53166.06;5110662;28;20020;-62
2022/11/24 00:43:49;;;;;;;4.35;1.75;;;;;;;-140.72;100.00;53164.03;5107216;28;20457;-69
2022/11/24 00:46:14;;;;;;;4.07;1.30;;;;;;;-140.72;100.00;53157.94;5101062;28;20031;-63
2022/11/24 00:48:39;;;;;;;5.07;2.17;;;;;;;-140.72;100.00;53149.81;5091866;27;20453;-66
2022/11/24 00:51:08;;;;;;;4.90;1.85;;;;;;;-140.72;100.00;53196.50;5090216;28;20036;-63
2022/11/24 00:53:34;;;;;;;4.55;1.45;;;;;;;-140.72;100.00;53182.28;5103881;28;20058;-64
2022/11/24 00:55:59;;;;;;;6.40;1.98;;;;;;;-140.72;100.00;53200.56;5100262;28;20114;-65
2022/11/24 00:58:25;;;;;;;5.28;0.82;;;;;;;-140.72;100.00;53182.28;5104986;28;20595;-61
2022/11/24 01:00:51;;;;;;;10.00;1.02;;;;;;;-140.72;100.00;53178.22;5096669;28;20028;-63
2022/11/24 01:03:18;;;;;;;11.15;1.67;;;;;;;-140.72;100.00;53210.72;5104274;28;20120;-65
2022/11/24 01:05:43;;;;;;;3.70;1.08;;;;;;;-140.72;100.00;53157.94;5120413;28;20031;-66
2022/11/24 01:08:09;;;;;;;6.45;1.50;;;;;;;-140.72;100.00;53176.22;5108648;28;20039;-61
2022/11/24 01:10:34;;;;;;;3.10;1.20;;;;;;;-140.72;100.00;53182.28;5109797;28;20076;-63
2022/11/24 01:13:00;;;;;;;6.30;1.50;;;;;;;-140.72;100.00;53170.13;5108072;28;20342;-61
2022/11/24 01:15:26;;;;;;;9.40;2.03;;;;;;;-140.72;100.00;53174.19;5099218;28;20020;-63
2022/11/24 01:17:52;;;;;;;6.00;1.23;;;;;;;-140.72;100.00;53178.22;5100621;28;20039;-66
2022/11/24 01:20:17;;;;;;;5.18;1.95;;;;;;;-140.72;100.00;53166.06;5107578;28;20032;-61
2022/11/24 01:22:43;;;;;;;7.90;0.90;;;;;;;-140.72;100.00;53143.72;5098263;28;20394;-63
2022/11/24 01:25:11;;;;;;;3.42;1.10;;;;;;;-140.72;100.00;53166.06;5095409;28;20555;-62
2022/11/24 01:27:37;;;;;;;6.13;1.45;;;;;;;-140.72;100.00;53141.69;5096690;28;20169;-67
2022/11/24 01:30:04;;;;;;;4.13;1.23;;;;;;;-140.72;100.00;53147.78;5109900;28;20491;-63
2022/11/24 01:32:32;;;;;;;5.65;1.27;;;;;;;-140.72;100.00;53174.19;5106829;28;20032;-65
2022/11/24 01:34:58;;;;;;;2.08;1.02;;;;;;;-140.72;100.00;53190.41;5097484;28;20027;-63
2022/11/24 01:37:24;;;;;;;3.47;1.83;;;;;;;-140.72;100.00;53153.88;5103280;28;20385;-62
2022/11/24 01:39:49;;;;;;;7.57;2.05;;;;;;;-140.72;100.00;53182.28;5112361;28;20110;-65
2022/11/24 01:42:15;;;;;;;4.80;1.25;;;;;;;-140.72;100.00;53137.66;5093474;28;20398;-63
2022/11/24 01:44:43;;;;;;;6.97;0.80;;;;;;;-140.72;100.00;53162.00;5107441;28;20058;-65
2022/11/24 01:47:15;;;;;;;6.47;1.77;;;;;;;-140.72;100.00;53157.94;5102410;28;20115;-63
2022/11/24 01:49:45;;;;;;;3.90;0.95;;;;;;;-140.72;100.00;53149.81;5109354;28;20032;-63
2022/11/24 01:52:21;;;;;;;1.55;0.90;;;;;;;-140.72;100.00;53162.00;5101406;28;20028;-62
2022/11/24 01:54:52;;;;;;;10.93;1.90;;;;;;;-140.72;100.00;53166.06;5097878;27;20028;-63
2022/11/24 01:57:31;;;;;;;2.38;0.93;;;;;;;-140.72;100.00;53192.44;5113438;28;20560;-63
2022/11/24 02:00:06;;;;;;;5.35;1.95;;;;;;;-140.72;100.00;53162.00;5096329;27;20489;-63
2022/11/24 02:02:32;;;;;;;2.28;1.02;;;;;;;-140.72;100.00;53157.94;5103751;28;20028;-63
2022/11/24 02:05:04;;;;;;;5.32;1.38;;;;;;;-140.72;100.00;53115.31;5113379;28;20031;-63
2022/11/24 02:07:29;;;;;;;2.25;0.95;;;;;;;-140.72;100.00;53149.81;5104109;27;20055;-63
2022/11/24 02:10:00;;;;;;;10.65;1.60;;;;;;;-140.72;100.00;53162.00;5116247;27;20032;-63
2022/11/24 02:12:26;;;;;;;8.43;1.88;;;;;;;-140.72;100.00;53141.69;5113253;28;20103;-66
2022/11/24 02:14:53;;;;;;;2.25;1.35;;;;;;;-140.72;100.00;53147.78;5100454;27;20110;-63
2022/11/24 02:17:18;;;;;;;2.47;1.05;;;;;;;-140.72;100.00;53145.75;5115850;27;20030;-63
2022/11/24 02:19:53;;;;;;;7.97;1.38;;;;;;;-140.72;100.00;53170.13;5113417;28;20038;-63
2022/11/24 02:22:26;;;;;;;8.75;1.85;;;;;;;-140.72;100.00;53170.13;5110133;28;20048;-64
2022/11/24 02:25:13;;;;;;;9.57;1.70;;;;;;;-140.72;100.00;53174.19;5113470;28;20526;-62
2022/11/24 02:27:39;;;;;;;2.97;0.95;;;;;;;-140.72;100.00;53113.28;5113127;28;20027;-63
2022/11/24 02:30:05;;;;;;;2.90;0.98;;;;;;;-140.72;100.00;53153.88;5112510;28;20069;-67
2022/11/24 02:32:32;;;;;;;6.93;0.90;;;;;;;-140.72;100.00;53168.09;5116267;27;20024;-63
2022/11/24 02:35:02;;;;;;;1.10;0.65;;;;;;;-140.72;100.00;53178.22;5112604;28;20023;-65
2022/11/24 02:37:28;;;;;;;1.23;0.60;;;;;;;-140.72;100.00;53151.84;5111451;28;20084;-63
2022/11/24 02:39:53;;;;;;;2.25;0.80;;;;;;;-140.72;100.00;53155.91;5111344;28;20031;-63
2022/11/24 02:42:19;;;;;;;5.45;0.90;;;;;;;-140.72;100.00;53159.97;5106495;28;20020;-63
2022/11/24 02:44:49;;;;;;;1.60;0.63;;;;;;;-140.72;100.00;53178.22;5105512;28;20028;-63
2022/11/24 02:47:15;;;;;;;1.80;0.60;;;;;;;-140.72;100.00;53182.28;5110841;27;20030;-66
2022/11/24 02:49:41;;;;;;;3.15;0.55;;;;;;;-140.72;100.00;53159.97;5100410;28;20190;-63
2022/11/24 02:52:06;;;;;;;7.03;0.82;;;;;;;-140.72;100.00;53153.88;5113033;27;20019;-66
2022/11/24 02:54:32;;;;;;;3.85;0.45;;;;;;;-140.72;100.00;53178.22;5112716;28;20027;-66
2022/11/24 02:56:57;;;;;;;4.20;0.75;;;;;;;-140.72;100.00;53172.16;5109855;28;20027;-62
2022/11/24 02:59:23;;;;;;;0.85;0.35;;;;;;;-140.72;100.00;53186.34;5112191;28;20030;-63
2022/11/24 03:01:48;;;;;;;5.88;0.93;;;;;;;-140.72;100.00;53166.06;5101662;28;20418;-64
2022/11/24 03:04:14;;;;;;;1.38;0.50;;;;;;;-140.72;100.00;53216.78;5111655;28;20085;-66
2022/11/24 03:06:39;;;;;;;2.53;0.38;;;;;;;-140.72;100.00;53147.78;5114553;27;20076;-63
2022/11/24 03:09:05;;;;;;;3.25;0.40;;;;;;;-140.72;100.00;53153.88;5109720;27;20039;-63
2022/11/24 03:11:31;;;;;;;1.73;0.50;;;;;;;-140.72;100.00;53218.81;5115033;27;20028;-65
2022/11/24 03:13:58;;;;;;;3.22;0.63;;;;;;;-140.72;100.00;53162.00;5108825;27;20039;-63
2022/11/24 03:16:23;;;;;;;2.50;0.22;;;;;;;-140.72;100.00;53166.06;5108673;28;20046;-68
2022/11/24 03:18:52;;;;;;;3.70;1.20;;;;;;;-140.72;100.00;53188.38;5111550;27;20473;-62
2022/11/24 03:21:18;;;;;;;2.45;0.65;;;;;;;-140.72;100.00;53174.19;5112047;27;20035;-67
2022/11/24 03:23:43;;;;;;;1.40;1.30;;;;;;;-140.72;100.00;53151.84;5107303;28;20019;-62
2022/11/24 03:26:11;;;;;;;2.15;0.80;;;;;;;-140.72;100.00;53133.59;5105193;27;20424;-66
2022/11/24 03:28:37;;;;;;;7.65;1.30;;;;;;;-140.72;100.00;53157.94;5105163;28;20042;-66
2022/11/24 03:31:03;;;;;;;1.08;0.57;;;;;;;-140.72;100.00;53188.38;5098611;27;20019;-65
2022/11/24 03:33:29;;;;;;;1.80;1.25;;;;;;;-140.72;100.00;53180.25;5103522;27;20241;-63
2022/11/24 03:35:54;;;;;;;3.30;0.73;;;;;;;-140.72;100.00;53170.13;5104272;28;20027;-64
2022/11/24 03:38:20;;;;;;;2.47;1.05;;;;;;;-140.72;100.00;53194.47;5111195;28;20462;-63
2022/11/24 03:40:45;;;;;;;3.50;1.30;;;;;;;-140.72;100.00;53151.84;5111137;27;20469;-63
2022/11/24 03:43:11;;;;;;;3.63;1.55;;;;;;;-140.72;100.00;53178.22;5096096;28;20388;-64
2022/11/24 03:45:36;;;;;;;4.43;1.30;;;;;;;-140.72;100.00;53153.88;5109236;28;20027;-65
2022/11/24 03:48:02;;;;;;;6.35;1.45;;;;;;;-140.72;100.00;53196.50;5099129;28;20019;-63
2022/11/24 03:50:27;;;;;;;3.67;1.77;;;;;;;-140.72;100.00;53145.75;5104625;28;20020;-67
2022/11/24 03:52:52;;;;;;;6.45;1.23;;;;;;;-140.72;100.00;53168.09;5104179;28;20476;-63
2022/11/24 03:55:18;;;;;;;8.27;2.00;;;;;;;-140.72;100.00;53119.38;5103833;28;20472;-66
2022/11/24 03:57:46;;;;;;;9.93;1.80;;;;;;;-140.72;100.00;53170.13;5111817;27;20110;-64
2022/11/24 04:00:12;;;;;;;2.22;1.15;;;;;;;-140.72;100.00;53135.63;5103799;27;20043;-63
2022/11/24 04:02:38;;;;;;;8.45;2.17;;;;;;;-140.72;100.00;53133.59;5107248;27;20031;-63
2022/11/24 04:05:04;;;;;;;3.35;1.30;;;;;;;-140.72;100.00;53182.28;5097211;27;20462;-64
2022/11/24 04:07:29;;;;;;;7.22;2.47;;;;;;;-140.72;100.00;53145.75;5096402;28;20031;-63
2022/11/24 04:09:55;;;;;;;9.90;1.52;;;;;;;-140.72;100.00;53155.91;5092552;28;20363;-63
2022/11/24 04:15:18;;;;;;;5.43;2.40;;;;;;;-140.72;100.00;53166.06;5091052;28;20036;-63
2022/11/24 04:17:44;;;;;;;4.93;1.38;;;;;;;-140.72;100.00;53212.75;5111405;27;20039;-66
2022/11/24 04:20:11;;;;;;;11.50;1.80;;;;;;;-140.72;100.00;53178.22;5111536;27;20088;-63
2022/11/24 04:22:36;;;;;;;5.72;1.23;;;;;;;-140.72;100.00;53164.03;5103306;28;20024;-66
2022/11/24 04:25:03;;;;;;;0.68;0.50;;;;;;;-140.72;100.00;53204.63;5098036;27;20030;-65
2022/11/24 04:27:28;;;;;;;0.75;0.75;;;;;;;-140.72;100.00;53186.34;5106638;28;20031;-64
2022/11/24 04:29:54;;;;;;;4.20;0.60;;;;;;;-140.72;100.00;53170.13;5110408;28;20461;-63
2022/11/24 04:32:19;;;;;;;0.93;0.70;;;;;;;-140.72;100.00;53151.84;5109727;28;20039;-62
2022/11/24 04:34:44;;;;;;;1.55;0.57;;;;;;;-140.72;100.00;53210.72;5106810;28;20086;-63
2022/11/24 04:37:10;;;;;;;0.68;0.38;;;;;;;-140.72;100.00;53186.34;5105267;27;20024;-63
2022/11/24 04:39:35;;;;;;;0.93;0.30;;;;;;;-140.72;100.00;53206.66;5107404;28;20562;-63
2022/11/24 04:42:01;;;;;;;2.17;0.68;;;;;;;-140.72;100.00;53180.25;5093306;28;20064;-63
2022/11/24 04:44:26;;;;;;;1.25;0.40;;;;;;;-140.72;100.00;53186.34;5109166;28;20051;-62
2022/11/24 04:46:51;;;;;;;0.35;0.20;;;;;;;-140.72;100.00;53186.34;5115632;27;20062;-65
2022/11/24 04:49:17;;;;;;;0.82;0.40;;;;;;;-140.72;100.00;53214.78;5107824;28;20046;-63
2022/11/24 04:51:42;;;;;;;1.08;0.30;;;;;;;-140.72;100.00;53174.19;5106738;28;20537;-62
2022/11/24 04:54:11;;;;;;;0.40;0.20;;;;;;;-140.72;100.00;53168.09;5110430;28;20028;-64
2022/11/24 04:56:36;;;;;;;1.02;0.40;;;;;;;-140.72;100.00;53168.09;5103948;28;20456;-63
2022/11/24 04:59:01;;;;;;;0.20;0.20;;;;;;;-140.72;100.00;53168.09;5108894;28;20115;-63
2022/11/24 05:01:27;;;;;;;3.30;0.43;;;;;;;-140.72;100.00;53226.94;5107551;27;20095;-66
2022/11/24 05:03:53;;;;;;;0.40;0.20;;;;;;;-140.72;100.00;53218.81;5107616;28;20102;-68
2022/11/24 05:06:19;;;;;;;2.70;0.50;;;;;;;-140.72;100.00;53210.72;5103318;28;20054;-62
2022/11/24 05:08:49;;;;;;;2.08;0.70;;;;;;;-140.72;100.00;53214.78;5103916;28;20032;-68
2022/11/24 05:11:15;;;;;;;1.67;0.38;;;;;;;-140.72;100.00;53218.81;5109476;28;20016;-62
2022/11/24 05:13:40;;;;;;;1.92;0.40;;;;;;;-140.72;100.00;53216.78;5106996;28;20031;-63
2022/11/24 05:16:05;;;;;;;0.35;0.20;;;;;;;-140.72;100.00;53222.88;5103754;28;20025;-61
2022/11/24 05:18:31;;;;;;;1.05;0.30;;;;;;;-140.72;100.00;53153.88;5099285;28;20032;-62
2022/11/24 05:20:58;;;;;;;0.20;0.20;;;;;;;-140.72;100.00;53206.66;5107587;28;20027;-61
2022/11/24 05:23:24;;;;;;;1.85;0.30;;;;;;;-140.72;100.00;53194.47;5103355;28;20047;-60
2022/11/24 05:25:50;;;;;;;1.85;0.50;;;;;;;-140.72;100.00;53192.44;5106387;28;20032;-62
2022/11/24 05:28:16;;;;;;;0.30;0.30;;;;;;;-140.72;100.00;53208.69;5107918;28;20225;-60
2022/11/24 05:30:42;;;;;;;2.17;0.30;;;;;;;-140.72;100.00;53204.63;5108902;28;20028;-62
2022/11/24 05:33:11;;;;;;;0.75;0.38;;;;;;;-140.72;100.00;53198.53;5099881;28;20054;-62
2022/11/24 05:35:36;;;;;;;0.95;0.60;;;;;;;-140.72;100.00;53186.34;5108163;27;20066;-62
2022/11/24 05:38:03;;;;;;;0.45;0.20;;;;;;;-140.72;100.00;53141.69;5100253;27;20060;-64
2022/11/24 05:40:29;;;;;;;4.07;0.82;;;;;;;-140.72;100.00;53119.38;5101123;27;20027;-63
2022/11/24 05:42:54;;;;;;;2.55;0.80;;;;;;;-140.72;100.00;53206.66;5114350;27;20028;-65
2022/11/24 05:45:20;;;;;;;2.50;0.90;;;;;;;-140.72;100.00;53157.94;5105705;28;20027;-65
2022/11/24 05:47:47;;;;;;;2.20;0.63;;;;;;;-140.72;100.00;53192.44;5094943;28;20057;-67
2022/11/24 05:50:15;;;;;;;1.60;0.73;;;;;;;-140.72;100.00;53200.56;5093249;28;20058;-63
2022/11/24 05:52:41;;;;;;;2.85;1.42;;;;;;;-140.72;100.00;53178.22;5112654;28;20469;-68
2022/11/24 05:55:08;;;;;;;1.08;0.80;;;;;;;-140.72;100.00;53174.19;5110021;28;20114;-62
2022/11/24 05:57:34;;;;;;;1.48;0.90;;;;;;;-140.72;100.00;53166.06;5113920;27;20429;-63
2022/11/24 06:00:00;;;;;;;7.22;1.63;;;;;;;-140.72;100.00;53168.09;5112569;28;20115;-62
2022/11/24 06:02:25;;;;;;;1.15;0.93;;;;;;;-140.72;100.00;53178.22;5120909;27;20116;-62
2022/11/24 06:04:51;;;;;;;6.13;2.03;;;;;;;-140.72;100.00;53194.47;5107003;27;20024;-62
2022/11/24 06:07:16;;;;;;;3.28;1.55;;;;;;;-140.72;100.00;53178.22;5112829;27;20054;-66
2022/11/24 06:09:42;;;;;;;6.72;1.50;;;;;;;-140.72;100.00;53208.69;5108406;28;20281;-63
2022/11/24 06:12:09;;;;;;;2.28;1.00;;;;;;;-140.72;100.00;53200.56;5112493;27;20035;-62
2022/11/24 06:14:35;;;;;;;2.85;1.65;;;;;;;-140.72;100.00;53210.72;5106954;28;20036;-62
2022/11/24 06:17:01;;;;;;;3.03;1.70;;;;;;;-140.72;100.00;53226.94;5119979;27;20034;-62
2022/11/24 06:19:27;;;;;;;3.35;1.85;;;;;;;-140.72;100.00;53206.66;5110711;27;20027;-66
2022/11/24 06:21:52;;;;;;;3.42;1.98;;;;;;;-140.72;100.00;53212.75;5110158;27;20024;-63
2022/11/24 06:24:17;;;;;;;5.93;1.95;;;;;;;-140.72;100.00;53168.09;5115262;27;20028;-62
2022/11/24 06:26:43;;;;;;;2.97;1.63;;;;;;;-140.72;100.00;53218.81;5111915;27;20442;-62
2022/11/24 06:29:08;;;;;;;3.38;1.70;;;;;;;-140.72;100.00;53212.75;5110097;27;20039;-65
2022/11/24 06:31:34;;;;;;;2.85;1.33;;;;;;;-140.72;100.00;53168.09;5110919;27;20074;-62
2022/11/24 06:34:00;;;;;;;6.90;2.63;;;;;;;-140.72;100.00;53210.72;5112908;27;20844;-62
2022/11/24 06:36:26;;;;;;;2.63;1.60;;;;;;;-140.72;100.00;53198.53;5111465;27;20107;-65
2022/11/24 06:38:52;;;;;;;3.30;1.65;;;;;;;-140.72;100.00;53218.81;5116934;27;20023;-65
2022/11/24 06:41:18;;;;;;;5.00;1.80;;;;;;;-140.72;100.00;53190.41;5104501;28;20028;-62
2022/11/24 06:43:44;;;;;;;5.90;1.80;;;;;;;-140.72;100.00;53180.25;5111808;27;20034;-66
2022/11/24 06:46:11;;;;;;;2.35;1.20;;;;;;;-140.72;100.00;53206.66;5108542;28;20035;-61
2022/11/24 06:48:36;;;;;;;3.90;2.20;;;;;;;-140.72;100.00;53178.22;5109998;27;20538;-62
2022/11/24 06:51:04;;;;;;;2.13;1.45;;;;;;;-140.72;100.00;53198.53;5107129;28;20027;-62
2022/11/24 06:53:36;;;;;;;5.05;2.20;;;;;;;-140.72;100.00;53168.09;5109605;28;20523;-62
2022/11/24 06:56:03;;;;;;;3.35;1.75;;;;;;;-140.72;100.00;53202.59;5102881;27;20508;-62
2022/11/24 06:58:29;;;;;;;6.55;2.08;;;;;;;-140.72;100.00;53155.91;5105852;27;20035;-63
2022/11/24 07:00:54;;;;;;;2.67;1.55;;;;;;;-140.72;100.00;53170.13;5118866;27;20031;-63
2022/11/24 07:03:20;;;;;;;2.70;1.40;;;;;;;-140.72;100.00;53186.34;5110460;27;20524;-62
2022/11/24 07:05:45;;;;;;;4.22;1.60;;;;;;;-140.72;100.00;53178.22;5117151;27;20035;-62
2022/11/24 07:08:10;;;;;;;3.22;2.00;;;;;;;-140.72;100.00;53159.97;5111948;28;20028;-63
2022/11/24 07:10:36;;;;;;;4.63;2.42;;;;;;;-140.72;100.00;53188.38;5093538;28;20027;-66
2022/11/24 07:13:02;;;;;;;3.47;2.20;;;;;;;-140.72;100.00;53137.66;5107075;28;20044;-63
2022/11/24 07:15:29;;;;;;;4.22;2.40;;;;;;;-140.72;100.00;53176.22;5108075;27;20110;-63
2022/11/24 07:17:55;;;;;;;2.60;1.73;;;;;;;-140.72;100.00;53188.38;5105524;28;20020;-63
2022/11/24 07:20:20;;;;;;;4.55;1.92;;;;;;;-140.72;100.00;53170.13;5108519;27;20036;-62
2022/11/24 07:22:45;;;;;;;4.40;2.30;;;;;;;-140.72;100.00;53153.88;5108330;27;20032;-63
2022/11/24 07:25:12;;;;;;;4.07;2.20;;;;;;;-140.72;100.00;53180.25;5103980;28;20027;-67
2022/11/24 07:27:38;;;;;;;4.15;2.22;;;;;;;-140.72;100.00;53172.16;5099862;27;20020;-64
2022/11/24 07:30:04;;;;;;;4.10;1.95;;;;;;;-140.72;100.00;53216.78;5102401;28;20077;-63
2022/11/24 07:32:30;;;;;;;3.70;2.00;;;;;;;-140.72;100.00;53184.31;5101459;27;20430;-62
2022/11/24 07:34:55;;;;;;;4.65;2.17;;;;;;;-140.72;100.00;53204.63;5097143;27;20067;-61
2022/11/24 07:37:21;;;;;;;2.97;1.35;;;;;;;-140.72;100.00;53190.41;5102305;27;20107;-63
2022/11/24 07:39:46;;;;;;;6.18;1.65;;;;;;;-140.72;100.00;53202.59;5110507;27;20381;-63
2022/11/24 07:42:11;;;;;;;2.25;1.20;;;;;;;-140.72;100.00;53186.34;5100439;28;20374;-63
2022/11/24 07:44:37;;;;;;;4.03;1.83;;;;;;;-140.72;100.00;53174.19;5103645;27;20028;-68
2022/11/24 07:47:02;;;;;;;6.82;1.63;;;;;;;-140.72;100.00;53174.19;5100543;28;20520;-63
2022/11/24 07:49:28;;;;;;;3.65;1.60;;;;;;;-140.72;100.00;53212.75;5102143;28;20024;-64
2022/11/24 07:51:53;;;;;;;3.00;1.60;;;;;;;-140.72;100.00;53218.81;5097729;27;20041;-67
2022/11/24 07:54:18;;;;;;;7.20;2.10;;;;;;;-140.72;100.00;53166.06;5106273;27;20031;-62
2022/11/24 07:56:47;;;;;;;11.35;1.55;;;;;;;-140.72;100.00;53194.47;5098639;28;20031;-63
2022/11/24 07:59:12;;;;;;;2.72;1.20;;;;;;;-140.72;100.00;53214.78;5106638;27;20028;-65
2022/11/24 08:01:38;;;;;;;3.78;1.30;;;;;;;-140.72;100.00;53196.50;5111245;27;20444;-63
2022/11/24 08:04:03;;;;;;;5.10;1.33;;;;;;;-140.72;100.00;53166.06;5088015;27;20028;-67
2022/11/24 08:06:29;;;;;;;2.00;0.90;;;;;;;-140.72;100.00;53214.78;5102212;27;20056;-63
2022/11/24 08:08:55;;;;;;;4.07;0.82;;;;;;;-140.72;100.00;53190.41;5108543;27;20359;-63
2022/11/24 08:11:21;;;;;;;4.75;1.40;;;;;;;-140.72;100.00;53224.91;5097388;27;20032;-63
2022/11/24 08:13:46;;;;;;;5.22;1.13;;;;;;;-140.72;100.00;53176.22;5096845;27;20498;-67
2022/11/24 08:16:14;;;;;;;2.90;1.02;;;;;;;-140.72;100.00;53208.69;5096438;27;20040;-63
2022/11/24 08:18:40;;;;;;;5.60;0.88;;;;;;;-140.72;100.00;53214.78;5103816;27;20039;-62
2022/11/24 08:21:07;;;;;;;4.55;0.85;;;;;;;-140.72;100.00;53198.53;5100857;27;20474;-67
2022/11/24 08:23:33;;;;;;;7.18;1.60;;;;;;;-140.72;100.00;53214.78;5094586;27;20024;-63
2022/11/24 08:26:04;;;;;;;4.97;1.27;;;;;;;-140.72;100.00;53172.16;5099159;28;20068;-63
2022/11/24 08:28:29;;;;;;;3.88;1.50;;;;;;;-140.72;100.00;53222.88;5100877;27;20028;-67
2022/11/24 08:31:06;;;;;;;4.45;1.27;;;;;;;-140.72;100.00;53159.97;5111683;27;20034;-63
2022/11/24 08:33:31;;;;;;;5.55;1.65;;;;;;;-140.72;100.00;53206.66;5094715;28;20432;-63
2022/11/24 08:36:08;;;;;;;5.18;1.05;;;;;;;-140.72;100.00;53218.81;5095457;28;20020;-63
2022/11/24 08:38:34;;;;;;;3.13;0.93;;;;;;;-140.72;100.00;53184.31;5108351;28;20046;-64
2022/11/24 08:41:09;;;;;;;9.07;1.40;;;;;;;-140.72;100.00;53157.94;5095946;28;20124;-65
2022/11/24 08:43:35;;;;;;;10.18;1.50;;;;;;;-140.72;100.00;53194.47;5104536;27;20035;-61
2022/11/24 08:46:05;;;;;;;7.75;1.52;;;;;;;-140.72;100.00;53196.50;5100311;28;20111;-63
2022/11/24 08:48:30;;;;;;;2.92;1.05;;;;;;;-140.72;100.00;53204.63;5102080;28;20164;-69
2022/11/24 08:50:57;;;;;;;4.05;0.90;;;;;;;-140.72;100.00;53170.13;5101129;28;20129;-63
2022/11/24 08:53:22;;;;;;;6.55;1.15;;;;;;;-140.72;100.00;53184.31;5095275;27;20115;-62
2022/11/24 08:55:48;;;;;;;5.68;0.82;;;;;;;-140.72;100.00;53145.75;5098809;28;20106;-60
2022/11/24 08:58:13;;;;;;;5.60;1.00;;;;;;;-140.72;100.00;53182.28;5102517;28;20031;-63
2022/11/24 09:00:39;;;;;;;3.35;0.80;;;;;;;-140.72;100.00;53210.72;5108122;28;20607;-63
2022/11/24 09:03:04;;;;;;;2.75;1.30;;;;;;;-140.72;100.00;53192.44;5101853;28;20433;-64
2022/11/24 09:05:29;;;;;;;2.17;0.70;;;;;;;-140.72;100.00;53168.09;5098485;28;20016;-65
2022/11/24 09:07:55;;;;;;;8.88;1.48;;;;;;;-140.72;100.00;53164.03;5097638;28;20477;-63
2022/11/24 09:10:20;;;;;;;3.17;1.23;;;;;;;-140.72;100.00;53164.03;5098285;28;20109;-63
2022/11/24 09:12:46;;;;;;;2.50;0.50;;;;;;;-140.72;100.00;53182.28;5096915;28;20069;-63
2022/11/24 09:15:13;;;;;;;4.53;0.80;;;;;;;-140.72;100.00;53153.88;5102401;28;20525;-67
2022/11/24 09:17:39;;;;;;;4.43;0.90;;;;;;;-140.72;100.00;53176.22;5107186;28;20342;-68
2022/11/24 09:20:05;;;;;;;1.88;0.50;;;;;;;-140.72;100.00;53190.41;5103482;28;20031;-63
2022/11/24 09:22:30;;;;;;;5.60;0.65;;;;;;;-140.72;100.00;53139.69;5103812;28;20070;-63
2022/11/24 09:24:56;;;;;;;2.38;0.77;;;;;;;-140.72;100.00;53147.78;5104316;28;20028;-63
2022/11/24 09:27:22;;;;;;;3.30;1.02;;;;;;;-140.72;100.00;53151.84;5101918;28;20043;-63
2022/11/24 09:29:48;;;;;;;10.13;1.40;;;;;;;-140.72;100.00;53180.25;5093744;28;20028;-63
2022/11/24 09:32:13;;;;;;;8.80;0.93;;;;;;;-140.72;100.00;53184.31;5099079;28;20028;-64
2022/11/24 09:34:39;;;;;;;6.57;0.90;;;;;;;-140.72;100.00;53153.88;5094625;28;20032;-66
2022/11/24 09:37:04;;;;;;;8.63;1.00;;;;;;;-140.72;100.00;53115.31;5101355;28;20037;-67
2022/11/24 09:39:30;;;;;;;6.85;2.00;;;;;;;-140.72;100.00;53153.88;5104543;28;20483;-63
2022/11/24 09:42:04;;;;;;;7.25;1.55;;;;;;;-140.72;100.00;53125.47;5099121;28;20016;-63
2022/11/24 09:44:48;;;;;;;4.55;0.93;;;;;;;-140.72;100.00;53147.78;5103622;28;20468;-63
2022/11/24 09:47:45;;;;;;;3.13;0.70;;;;;;;-140.72;100.00;53151.84;5104217;28;20535;-63
2022/11/24 09:50:21;;;;;;;5.60;1.08;;;;;;;-140.72;100.00;53137.66;5097888;28;20050;-68
2022/11/24 09:52:52;;;;;;;4.22;1.45;;;;;;;-140.72;100.00;53125.47;5099328;28;20019;-65
2022/11/24 09:55:28;;;;;;;5.13;0.90;;;;;;;-140.72;100.00;53088.94;5098909;28;20032;-64
2022/11/24 09:58:08;;;;;;;9.27;1.83;;;;;;;-140.72;100.00;53139.69;5102328;28;20035;-61
2022/11/24 10:00:37;;;;;;;3.70;0.75;;;;;;;-140.72;100.00;53115.31;5099423;28;20089;-62
2022/11/24 10:03:03;;;;;;;6.38;1.02;;;;;;;-140.72;100.00;53123.44;5100182;28;20047;-66
2022/11/24 10:05:33;;;;;;;5.63;0.68;;;;;;;-140.72;100.00;53129.53;5101064;28;20122;-62
2022/11/24 10:08:43;;;;;;;6.00;1.27;;;;;;;-140.72;100.00;53125.47;5104101;28;20023;-67
2022/11/24 10:11:17;;;;;;;6.22;1.33;;;;;;;-140.72;100.00;53125.47;5083196;28;20031;-62
2022/11/24 10:14:07;;;;;;;6.65;1.00;;;;;;;-140.72;100.00;53125.47;5095068;28;20147;-61
2022/11/24 10:16:51;;;;;;;8.48;1.75;;;;;;;-140.72;100.00;53137.66;5102316;27;20115;-64
2022/11/24 10:19:23;;;;;;;4.93;0.80;;;;;;;-140.72;100.00;53151.84;5106044;27;20031;-63
2022/11/24 10:22:16;;;;;;;3.00;1.20;;;;;;;-140.72;100.00;53170.13;5104983;27;20089;-61
2022/11/24 10:25:13;;;;;;;5.65;1.25;;;;;;;-140.72;100.00;53109.22;5104870;27;20101;-63
2022/11/24 10:27:53;;;;;;;5.65;1.38;;;;;;;-140.72;100.00;53123.44;5098096;27;20032;-62
2022/11/24 10:30:25;;;;;;;6.63;1.48;;;;;;;-140.72;100.00;53151.84;5102154;28;20028;-65
2022/11/24 10:33:11;;;;;;;4.82;1.23;;;;;;;-140.72;100.00;53145.75;5100778;28;20019;-65
2022/11/24 10:35:46;;;;;;;7.05;1.27;;;;;;;-140.72;100.00;53141.69;5109606;27;20049;-63
2022/11/24 10:38:29;;;;;;;8.98;1.63;;;;;;;-140.72;100.00;53133.59;5104593;28;20028;-63
2022/11/24 10:41:04;;;;;;;3.20;1.35;;;;;;;-140.72;100.00;53143.72;5102311;27;20028;-67
2022/11/24 10:43:29;;;;;;;5.03;1.85;;;;;;;-140.72;100.00;53093.00;5102938;27;20289;-70
2022/11/24 10:46:22;;;;;;;6.00;2.05;;;;;;;-140.72;100.00;53162.00;5103197;27;20112;-67
2022/11/24 10:48:51;;;;;;;6.20;1.80;;;;;;;-140.72;100.00;53166.06;5104465;27;20031;-63
2022/11/24 10:51:40;;;;;;;2.77;1.27;;;;;;;-140.72;100.00;53135.63;5107459;28;20084;-65
2022/11/24 10:54:12;;;;;;;4.75;1.98;;;;;;;-140.72;100.00;53164.03;5099125;27;20028;-63
2022/11/24 10:56:42;;;;;;;6.97;1.40;;;;;;;-140.72;100.00;53145.75;5103049;27;20440;-63
2022/11/24 10:59:26;;;;;;;;;;;;;;;-140.72;100.00;53139.69;5114563;27;20031;-67
2022/11/24 11:01:52;;;;;;;3.50;1.08;;;;;;;-140.72;100.00;53127.50;5101076;28;20301;-65
2022/11/24 11:04:27;;;;;;;4.70;1.60;;;;;;;-140.72;100.00;53153.88;5102004;27;20044;-63
2022/11/24 11:07:08;;;;;;;10.48;1.65;;;;;;;-140.72;100.00;53135.63;5103787;27;20446;-68
2022/11/24 11:09:34;;;;;;;4.05;1.15;;;;;;;-140.72;100.00;53155.91;5106854;27;20024;-67
2022/11/24 11:12:09;;;;;;;4.93;1.17;;;;;;;-140.72;100.00;53121.41;5097316;28;20027;-63
2022/11/24 11:14:35;;;;;;;5.10;1.10;;;;;;;-140.72;100.00;53101.13;5101608;27;20172;-65
2022/11/24 11:17:01;;;;;;;3.88;1.00;;;;;;;-140.72;100.00;53109.22;5107920;27;20123;-67